sensor_id;sensor_type;location;lat;lon;timestamp;temperature;humidity
23591;DHT22;11973;52.098;7.582;2023-05-27T05:16:48;9.40;72.10
23591;DHT22;11973;52.098;7.582;2023-05-27T05:19:14;9.40;72.20
23591;DHT22;11973;52.098;7.582;2023-05-27T05:21:40;9.50;72.60
23591;DHT22;11973;52.098;7.582;2023-05-27T05:24:09;9.60;72.70
23591;DHT22;11973;52.098;7.582;2023-05-27T05:26:35;9.60;72.70
23591;DHT22;11973;52.098;7.582;2023-05-27T05:29:02;9.70;72.90
23591;DHT22;11973;52.098;7.582;2023-05-27T05:31:28;9.70;73.00
23591;DHT22;11973;52.098;7.582;2023-05-27T05:33:55;9.90;73.20
23591;DHT22;11973;52.098;7.582;2023-05-27T05:36:21;9.90;73.30
23591;DHT22;11973;52.098;7.582;2023-05-27T05:38:54;10.00;72.30
23591;DHT22;11973;52.098;7.582;2023-05-27T05:41:20;10.00;72.30
23591;DHT22;11973;52.098;7.582;2023-05-27T05:43:46;10.10;72.50
23591;DHT22;11973;52.098;7.582;2023-05-27T05:46:12;10.20;72.70
23591;DHT22;11973;52.098;7.582;2023-05-27T05:48:38;10.20;72.70
23591;DHT22;11973;52.098;7.582;2023-05-27T05:51:08;10.20;72.80
23591;DHT22;11973;52.098;7.582;2023-05-27T05:53:34;10.30;72.80
23591;DHT22;11973;52.098;7.582;2023-05-27T05:56:00;10.40;73.10
23591;DHT22;11973;52.098;7.582;2023-05-27T05:58:26;10.40;73.10
23591;DHT22;11973;52.098;7.582;2023-05-27T06:00:51;10.50;73.20
23591;DHT22;11973;52.098;7.582;2023-05-27T06:03:29;10.50;73.30
23591;DHT22;11973;52.098;7.582;2023-05-27T06:05:58;10.60;73.30
23591;DHT22;11973;52.098;7.582;2023-05-27T06:08:24;10.70;73.50
23591;DHT22;11973;52.098;7.582;2023-05-27T06:11:09;10.70;73.60
23591;DHT22;11973;52.098;7.582;2023-05-27T06:13:36;10.80;73.70
23591;DHT22;11973;52.098;7.582;2023-05-27T06:16:05;10.90;73.70
23591;DHT22;11973;52.098;7.582;2023-05-27T06:18:31;10.90;73.80
23591;DHT22;11973;52.098;7.582;2023-05-27T06:20:57;11.00;74.00
23591;DHT22;11973;52.098;7.582;2023-05-27T06:23:24;11.10;74.10
23591;DHT22;11973;52.098;7.582;2023-05-27T06:26:08;11.10;74.10
23591;DHT22;11973;52.098;7.582;2023-05-27T06:28:41;11.20;75.00
23591;DHT22;11973;52.098;7.582;2023-05-27T06:31:07;11.30;74.30
23591;DHT22;11973;52.098;7.582;2023-05-27T06:33:33;11.30;74.30
23591;DHT22;11973;52.098;7.582;2023-05-27T06:35:59;11.40;74.40
23591;DHT22;11973;52.098;7.582;2023-05-27T06:38:26;11.50;74.50
23591;DHT22;11973;52.098;7.582;2023-05-27T06:40:53;11.50;74.50
23591;DHT22;11973;52.098;7.582;2023-05-27T06:43:19;11.60;74.60
23591;DHT22;11973;52.098;7.582;2023-05-27T06:45:53;11.70;74.80
23591;DHT22;11973;52.098;7.582;2023-05-27T06:48:27;11.80;74.90
23591;DHT22;11973;52.098;7.582;2023-05-27T06:50:53;11.80;74.90
23591;DHT22;11973;52.098;7.582;2023-05-27T06:53:19;11.90;74.90
23591;DHT22;11973;52.098;7.582;2023-05-27T06:55:57;11.90;74.90
23591;DHT22;11973;52.098;7.582;2023-05-27T06:58:55;12.00;75.00
23591;DHT22;11973;52.098;7.582;2023-05-27T07:01:21;12.10;75.00
23591;DHT22;11973;52.098;7.582;2023-05-27T07:03:57;12.20;75.20
23591;DHT22;11973;52.098;7.582;2023-05-27T07:06:42;12.20;75.10
23591;DHT22;11973;52.098;7.582;2023-05-27T07:09:10;12.30;75.20
23591;DHT22;11973;52.098;7.582;2023-05-27T07:11:37;12.40;75.40
23591;DHT22;11973;52.098;7.582;2023-05-27T07:14:07;12.50;75.50
23591;DHT22;11973;52.098;7.582;2023-05-27T07:16:37;12.50;75.40
23591;DHT22;11973;52.098;7.582;2023-05-27T07:19:04;12.60;75.40
23591;DHT22;11973;52.098;7.582;2023-05-27T07:21:36;12.70;75.50
23591;DHT22;11973;52.098;7.582;2023-05-27T07:24:07;12.70;75.40
23591;DHT22;11973;52.098;7.582;2023-05-27T07:26:35;12.80;75.50
23591;DHT22;11973;52.098;7.582;2023-05-27T07:29:02;12.90;75.60
23591;DHT22;11973;52.098;7.582;2023-05-27T07:31:50;12.90;75.50
23591;DHT22;11973;52.098;7.582;2023-05-27T07:34:18;13.00;75.50
23591;DHT22;11973;52.098;7.582;2023-05-27T07:36:44;13.10;75.50
23591;DHT22;11973;52.098;7.582;2023-05-27T07:39:10;13.20;75.60
23591;DHT22;11973;52.098;7.582;2023-05-27T07:41:36;13.20;75.50
23591;DHT22;11973;52.098;7.582;2023-05-27T07:44:03;13.30;75.50
23591;DHT22;11973;52.098;7.582;2023-05-27T07:46:29;13.30;75.50
23591;DHT22;11973;52.098;7.582;2023-05-27T07:48:56;13.40;75.70
23591;DHT22;11973;52.098;7.582;2023-05-27T07:51:23;13.40;75.60
23591;DHT22;11973;52.098;7.582;2023-05-27T07:53:50;13.50;76.40
23591;DHT22;11973;52.098;7.582;2023-05-27T07:56:17;13.60;75.70
23591;DHT22;11973;52.098;7.582;2023-05-27T07:58:42;13.70;76.00
23591;DHT22;11973;52.098;7.582;2023-05-27T08:01:10;13.80;75.90
23591;DHT22;11973;52.098;7.582;2023-05-27T08:03:39;13.80;75.70
23591;DHT22;11973;52.098;7.582;2023-05-27T08:06:17;13.90;75.50
23591;DHT22;11973;52.098;7.582;2023-05-27T08:09:02;13.90;75.40
23591;DHT22;11973;52.098;7.582;2023-05-27T08:11:52;14.00;75.50
23591;DHT22;11973;52.098;7.582;2023-05-27T08:14:45;14.10;75.50
23591;DHT22;11973;52.098;7.582;2023-05-27T08:17:31;14.20;75.50
23591;DHT22;11973;52.098;7.582;2023-05-27T08:20:15;14.20;75.50
23591;DHT22;11973;52.098;7.582;2023-05-27T08:22:56;14.30;75.50
23591;DHT22;11973;52.098;7.582;2023-05-27T08:25:40;14.40;75.60
23591;DHT22;11973;52.098;7.582;2023-05-27T08:28:16;14.50;75.70
23591;DHT22;11973;52.098;7.582;2023-05-27T08:30:49;14.50;75.50
23591;DHT22;11973;52.098;7.582;2023-05-27T08:33:31;14.60;75.50
23591;DHT22;11973;52.098;7.582;2023-05-27T08:35:57;14.70;75.50
23591;DHT22;11973;52.098;7.582;2023-05-27T08:38:23;14.80;75.50
23591;DHT22;11973;52.098;7.582;2023-05-27T08:40:53;14.90;75.50
23591;DHT22;11973;52.098;7.582;2023-05-27T08:43:19;15.00;75.40
23591;DHT22;11973;52.098;7.582;2023-05-27T08:45:47;15.10;75.30
23591;DHT22;11973;52.098;7.582;2023-05-27T08:48:15;15.10;75.20
23591;DHT22;11973;52.098;7.582;2023-05-27T08:50:43;15.20;75.10
23591;DHT22;11973;52.098;7.582;2023-05-27T08:53:09;15.30;75.90
23591;DHT22;11973;52.098;7.582;2023-05-27T08:55:37;15.30;75.00
23591;DHT22;11973;52.098;7.582;2023-05-27T08:58:09;15.40;74.80
23591;DHT22;11973;52.098;7.582;2023-05-27T09:00:40;15.50;74.90
23591;DHT22;11973;52.098;7.582;2023-05-27T09:03:17;15.50;74.80
23591;DHT22;11973;52.098;7.582;2023-05-27T09:05:42;15.60;74.70
23591;DHT22;11973;52.098;7.582;2023-05-27T09:08:08;15.60;74.70
23591;DHT22;11973;52.098;7.582;2023-05-27T09:10:41;15.80;74.90
23591;DHT22;11973;52.098;7.582;2023-05-27T09:13:08;15.80;74.60
23591;DHT22;11973;52.098;7.582;2023-05-27T09:15:34;15.90;74.40
23591;DHT22;11973;52.098;7.582;2023-05-27T09:18:01;15.90;74.20
23591;DHT22;11973;52.098;7.582;2023-05-27T09:20:29;16.00;74.10
23591;DHT22;11973;52.098;7.582;2023-05-27T09:23:03;16.10;74.10
23591;DHT22;11973;52.098;7.582;2023-05-27T09:25:29;16.10;74.00
23591;DHT22;11973;52.098;7.582;2023-05-27T09:27:56;16.20;73.90
23591;DHT22;11973;52.098;7.582;2023-05-27T09:30:22;16.30;73.50
23591;DHT22;11973;52.098;7.582;2023-05-27T09:32:48;16.30;73.40
23591;DHT22;11973;52.098;7.582;2023-05-27T09:35:16;16.30;73.10
23591;DHT22;11973;52.098;7.582;2023-05-27T09:37:42;16.40;73.20
23591;DHT22;11973;52.098;7.582;2023-05-27T09:40:12;16.50;73.30
23591;DHT22;11973;52.098;7.582;2023-05-27T09:42:48;16.50;73.10
23591;DHT22;11973;52.098;7.582;2023-05-27T09:45:19;16.50;72.80
23591;DHT22;11973;52.098;7.582;2023-05-27T09:47:51;16.60;73.10
23591;DHT22;11973;52.098;7.582;2023-05-27T09:50:18;16.60;72.70
23591;DHT22;11973;52.098;7.582;2023-05-27T09:52:46;16.70;72.40
23591;DHT22;11973;52.098;7.582;2023-05-27T09:55:13;16.80;72.30
23591;DHT22;11973;52.098;7.582;2023-05-27T09:57:40;16.90;72.10
23591;DHT22;11973;52.098;7.582;2023-05-27T10:00:07;16.90;72.10
23591;DHT22;11973;52.098;7.582;2023-05-27T10:02:46;17.00;72.10
23591;DHT22;11973;52.098;7.582;2023-05-27T10:05:13;17.10;72.00
23591;DHT22;11973;52.098;7.582;2023-05-27T10:07:42;17.10;71.70
23591;DHT22;11973;52.098;7.582;2023-05-27T10:10:14;17.20;71.50
23591;DHT22;11973;52.098;7.582;2023-05-27T10:12:41;17.30;72.00
23591;DHT22;11973;52.098;7.582;2023-05-27T10:15:08;17.30;71.20
23591;DHT22;11973;52.098;7.582;2023-05-27T10:18:03;17.30;71.00
23591;DHT22;11973;52.098;7.582;2023-05-27T10:20:41;17.40;70.70
23591;DHT22;11973;52.098;7.582;2023-05-27T10:25:55;17.60;70.40
23591;DHT22;11973;52.098;7.582;2023-05-27T10:28:28;17.50;70.00
23591;DHT22;11973;52.098;7.582;2023-05-27T10:31:07;17.70;69.80
23591;DHT22;11973;52.098;7.582;2023-05-27T10:33:44;17.80;69.40
23591;DHT22;11973;52.098;7.582;2023-05-27T10:36:14;17.80;69.20
23591;DHT22;11973;52.098;7.582;2023-05-27T10:38:54;17.90;69.10
23591;DHT22;11973;52.098;7.582;2023-05-27T10:41:21;17.90;68.70
23591;DHT22;11973;52.098;7.582;2023-05-27T10:43:57;18.00;68.90
23591;DHT22;11973;52.098;7.582;2023-05-27T10:46:24;18.00;68.80
23591;DHT22;11973;52.098;7.582;2023-05-27T10:48:50;18.20;68.80
23591;DHT22;11973;52.098;7.582;2023-05-27T10:51:16;18.20;68.30
23591;DHT22;11973;52.098;7.582;2023-05-27T10:53:42;18.30;68.40
23591;DHT22;11973;52.098;7.582;2023-05-27T10:56:07;18.40;68.20
23591;DHT22;11973;52.098;7.582;2023-05-27T10:58:37;18.40;68.00
23591;DHT22;11973;52.098;7.582;2023-05-27T11:01:11;18.50;67.80
23591;DHT22;11973;52.098;7.582;2023-05-27T11:03:45;18.60;67.90
23591;DHT22;11973;52.098;7.582;2023-05-27T11:06:12;18.70;67.70
23591;DHT22;11973;52.098;7.582;2023-05-27T11:08:38;18.80;67.70
23591;DHT22;11973;52.098;7.582;2023-05-27T11:11:09;18.80;67.30
23591;DHT22;11973;52.098;7.582;2023-05-27T11:13:43;18.90;67.10
23591;DHT22;11973;52.098;7.582;2023-05-27T11:16:09;19.00;66.90
23591;DHT22;11973;52.098;7.582;2023-05-27T11:18:40;19.10;66.50
23591;DHT22;11973;52.098;7.582;2023-05-27T11:21:08;19.10;67.10
23591;DHT22;11973;52.098;7.582;2023-05-27T11:23:45;19.20;66.20
23591;DHT22;11973;52.098;7.582;2023-05-27T11:26:18;19.20;66.60
23591;DHT22;11973;52.098;7.582;2023-05-27T11:28:47;19.30;65.80
23591;DHT22;11973;52.098;7.582;2023-05-27T11:31:13;19.40;65.80
23591;DHT22;11973;52.098;7.582;2023-05-27T11:33:44;19.50;65.60
23591;DHT22;11973;52.098;7.582;2023-05-27T11:36:15;19.60;66.20
23591;DHT22;11973;52.098;7.582;2023-05-27T11:41:16;19.80;65.20
23591;DHT22;11973;52.098;7.582;2023-05-27T11:46:14;20.00;64.70
23591;DHT22;11973;52.098;7.582;2023-05-27T11:48:40;20.00;64.50
23591;DHT22;11973;52.098;7.582;2023-05-27T11:51:06;20.10;64.30
23591;DHT22;11973;52.098;7.582;2023-05-27T11:53:32;20.10;64.20
23591;DHT22;11973;52.098;7.582;2023-05-27T11:55:59;20.20;64.10
23591;DHT22;11973;52.098;7.582;2023-05-27T11:58:25;20.30;64.10
23591;DHT22;11973;52.098;7.582;2023-05-27T12:00:52;20.30;64.10
23591;DHT22;11973;52.098;7.582;2023-05-27T12:03:18;20.40;63.90
23591;DHT22;11973;52.098;7.582;2023-05-27T12:05:43;20.50;63.90
23591;DHT22;11973;52.098;7.582;2023-05-27T12:08:09;20.60;64.80
23591;DHT22;11973;52.098;7.582;2023-05-27T12:10:35;20.70;63.80
23591;DHT22;11973;52.098;7.582;2023-05-27T12:13:04;20.80;63.80
23591;DHT22;11973;52.098;7.582;2023-05-27T12:15:30;20.90;63.60
23591;DHT22;11973;52.098;7.582;2023-05-27T12:17:57;21.00;63.50
23591;DHT22;11973;52.098;7.582;2023-05-27T12:20:23;21.10;63.10
23591;DHT22;11973;52.098;7.582;2023-05-27T12:22:53;21.20;62.70
23591;DHT22;11973;52.098;7.582;2023-05-27T12:25:19;21.30;62.30
23591;DHT22;11973;52.098;7.582;2023-05-27T12:27:45;21.40;61.90
23591;DHT22;11973;52.098;7.582;2023-05-27T12:30:11;21.50;61.50
23591;DHT22;11973;52.098;7.582;2023-05-27T12:32:38;21.60;61.20
23591;DHT22;11973;52.098;7.582;2023-05-27T12:35:04;21.60;60.90
23591;DHT22;11973;52.098;7.582;2023-05-27T12:37:30;21.60;60.50
23591;DHT22;11973;52.098;7.582;2023-05-27T12:39:56;21.70;60.30
23591;DHT22;11973;52.098;7.582;2023-05-27T12:42:21;21.80;59.80
23591;DHT22;11973;52.098;7.582;2023-05-27T12:44:48;21.90;59.70
23591;DHT22;11973;52.098;7.582;2023-05-27T12:47:14;22.00;59.60
23591;DHT22;11973;52.098;7.582;2023-05-27T12:49:39;22.10;59.50
23591;DHT22;11973;52.098;7.582;2023-05-27T12:52:05;22.20;59.90
23591;DHT22;11973;52.098;7.582;2023-05-27T12:54:31;22.20;59.50
23591;DHT22;11973;52.098;7.582;2023-05-27T12:56:57;22.30;58.70
23591;DHT22;11973;52.098;7.582;2023-05-27T12:59:23;22.40;58.60
23591;DHT22;11973;52.098;7.582;2023-05-27T13:01:48;22.40;58.30
23591;DHT22;11973;52.098;7.582;2023-05-27T13:04:14;22.60;58.30
23591;DHT22;11973;52.098;7.582;2023-05-27T13:06:40;22.70;58.30
23591;DHT22;11973;52.098;7.582;2023-05-27T13:09:06;22.80;58.20
23591;DHT22;11973;52.098;7.582;2023-05-27T13:11:34;22.80;58.00
23591;DHT22;11973;52.098;7.582;2023-05-27T13:14:00;23.00;58.00
23591;DHT22;11973;52.098;7.582;2023-05-27T13:16:26;23.10;57.80
23591;DHT22;11973;52.098;7.582;2023-05-27T13:18:51;23.20;57.60
23591;DHT22;11973;52.098;7.582;2023-05-27T13:21:17;23.30;57.30
23591;DHT22;11973;52.098;7.582;2023-05-27T13:23:43;23.40;57.20
23591;DHT22;11973;52.098;7.582;2023-05-27T13:26:09;23.40;56.80
23591;DHT22;11973;52.098;7.582;2023-05-27T13:28:34;23.50;56.70
23591;DHT22;11973;52.098;7.582;2023-05-27T13:31:00;23.60;56.50
23591;DHT22;11973;52.098;7.582;2023-05-27T13:33:27;23.70;56.40
23591;DHT22;11973;52.098;7.582;2023-05-27T13:35:53;23.80;56.30
23591;DHT22;11973;52.098;7.582;2023-05-27T13:38:18;23.90;56.00
23591;DHT22;11973;52.098;7.582;2023-05-27T13:40:44;24.00;55.80
23591;DHT22;11973;52.098;7.582;2023-05-27T13:43:10;24.10;55.60
23591;DHT22;11973;52.098;7.582;2023-05-27T13:45:36;24.10;55.30
23591;DHT22;11973;52.098;7.582;2023-05-27T13:48:01;24.20;55.20
23591;DHT22;11973;52.098;7.582;2023-05-27T13:50:27;24.30;55.10
23591;DHT22;11973;52.098;7.582;2023-05-27T13:52:54;24.40;54.80
23591;DHT22;11973;52.098;7.582;2023-05-27T13:55:20;24.50;54.60
23591;DHT22;11973;52.098;7.582;2023-05-27T13:57:46;24.70;54.60
23591;DHT22;11973;52.098;7.582;2023-05-27T14:00:12;25.10;55.10
23591;DHT22;11973;52.098;7.582;2023-05-27T14:02:38;25.60;55.50
23591;DHT22;11973;52.098;7.582;2023-05-27T14:05:04;26.30;55.70
23591;DHT22;11973;52.098;7.582;2023-05-27T14:07:32;26.90;55.40
23591;DHT22;11973;52.098;7.582;2023-05-27T14:09:57;27.50;55.20
23591;DHT22;11973;52.098;7.582;2023-05-27T14:12:25;28.10;54.50
23591;DHT22;11973;52.098;7.582;2023-05-27T14:14:51;28.70;54.00
23591;DHT22;11973;52.098;7.582;2023-05-27T14:17:17;29.20;53.30
23591;DHT22;11973;52.098;7.582;2023-05-27T14:19:42;29.70;52.50
23591;DHT22;11973;52.098;7.582;2023-05-27T14:22:08;30.20;51.80
23591;DHT22;11973;52.098;7.582;2023-05-27T14:24:34;30.60;50.70
23591;DHT22;11973;52.098;7.582;2023-05-27T14:26:59;31.10;50.10
23591;DHT22;11973;52.098;7.582;2023-05-27T14:29:26;31.50;49.50
23591;DHT22;11973;52.098;7.582;2023-05-27T14:31:52;31.90;48.70
23591;DHT22;11973;52.098;7.582;2023-05-27T14:34:18;32.30;47.90
23591;DHT22;11973;52.098;7.582;2023-05-27T14:36:44;32.60;47.00
23591;DHT22;11973;52.098;7.582;2023-05-27T14:39:10;32.90;46.20
23591;DHT22;11973;52.098;7.582;2023-05-27T14:41:36;33.20;45.60
23591;DHT22;11973;52.098;7.582;2023-05-27T14:44:02;33.40;44.80
23591;DHT22;11973;52.098;7.582;2023-05-27T14:46:28;33.70;44.90
23591;DHT22;11973;52.098;7.582;2023-05-27T14:48:54;34.00;43.60
23591;DHT22;11973;52.098;7.582;2023-05-27T14:51:19;34.30;43.50
23591;DHT22;11973;52.098;7.582;2023-05-27T14:53:46;34.60;42.30
23591;DHT22;11973;52.098;7.582;2023-05-27T14:56:12;34.90;41.60
23591;DHT22;11973;52.098;7.582;2023-05-27T14:58:38;35.20;40.80
23591;DHT22;11973;52.098;7.582;2023-05-27T15:01:05;35.40;39.80
23591;DHT22;11973;52.098;7.582;2023-05-27T15:03:31;35.60;39.20
23591;DHT22;11973;52.098;7.582;2023-05-27T15:05:57;35.70;38.70
23591;DHT22;11973;52.098;7.582;2023-05-27T15:08:24;35.90;38.60
23591;DHT22;11973;52.098;7.582;2023-05-27T15:10:50;36.10;37.60
23591;DHT22;11973;52.098;7.582;2023-05-27T15:13:16;36.30;37.10
23591;DHT22;11973;52.098;7.582;2023-05-27T15:15:42;36.50;36.70
23591;DHT22;11973;52.098;7.582;2023-05-27T15:18:09;36.60;36.10
23591;DHT22;11973;52.098;7.582;2023-05-27T15:20:36;36.90;35.70
23591;DHT22;11973;52.098;7.582;2023-05-27T15:23:01;37.10;35.30
23591;DHT22;11973;52.098;7.582;2023-05-27T15:25:27;37.30;34.60
23591;DHT22;11973;52.098;7.582;2023-05-27T15:27:53;37.50;34.30
23591;DHT22;11973;52.098;7.582;2023-05-27T15:30:19;37.70;33.80
23591;DHT22;11973;52.098;7.582;2023-05-27T15:32:45;37.80;33.20
23591;DHT22;11973;52.098;7.582;2023-05-27T15:35:11;38.00;32.80
23591;DHT22;11973;52.098;7.582;2023-05-27T15:37:37;38.10;32.20
23591;DHT22;11973;52.098;7.582;2023-05-27T15:40:12;38.30;31.80
23591;DHT22;11973;52.098;7.582;2023-05-27T15:42:38;38.50;31.70
23591;DHT22;11973;52.098;7.582;2023-05-27T15:45:04;38.70;31.60
23591;DHT22;11973;52.098;7.582;2023-05-27T15:47:30;38.90;30.50
23591;DHT22;11973;52.098;7.582;2023-05-27T15:49:55;39.10;30.10
23591;DHT22;11973;52.098;7.582;2023-05-27T15:52:21;39.20;29.90
23591;DHT22;11973;52.098;7.582;2023-05-27T15:54:48;39.40;29.50
23591;DHT22;11973;52.098;7.582;2023-05-27T15:57:14;39.50;29.20
23591;DHT22;11973;52.098;7.582;2023-05-27T15:59:40;39.80;29.10
23591;DHT22;11973;52.098;7.582;2023-05-27T16:02:06;39.90;28.90
23591;DHT22;11973;52.098;7.582;2023-05-27T16:04:33;40.10;28.50
23591;DHT22;11973;52.098;7.582;2023-05-27T16:06:58;40.20;28.70
23591;DHT22;11973;52.098;7.582;2023-05-27T16:09:25;40.30;28.00
23591;DHT22;11973;52.098;7.582;2023-05-27T16:11:51;40.30;27.70
23591;DHT22;11973;52.098;7.582;2023-05-27T16:14:17;40.40;27.40
23591;DHT22;11973;52.098;7.582;2023-05-27T16:16:44;40.40;27.20
23591;DHT22;11973;52.098;7.582;2023-05-27T16:19:09;40.40;27.20
23591;DHT22;11973;52.098;7.582;2023-05-27T16:21:36;40.50;26.90
23591;DHT22;11973;52.098;7.582;2023-05-27T16:24:01;40.50;26.80
23591;DHT22;11973;52.098;7.582;2023-05-27T16:26:27;40.60;26.50
23591;DHT22;11973;52.098;7.582;2023-05-27T16:28:53;40.60;26.30
23591;DHT22;11973;52.098;7.582;2023-05-27T16:31:18;40.70;26.30
23591;DHT22;11973;52.098;7.582;2023-05-27T16:33:46;40.80;26.10
23591;DHT22;11973;52.098;7.582;2023-05-27T16:36:11;40.90;25.90
23591;DHT22;11973;52.098;7.582;2023-05-27T16:38:37;40.90;25.70
23591;DHT22;11973;52.098;7.582;2023-05-27T16:41:03;40.70;25.60
23591;DHT22;11973;52.098;7.582;2023-05-27T16:43:29;40.10;25.40
23591;DHT22;11973;52.098;7.582;2023-05-27T16:45:55;39.00;25.30
23591;DHT22;11973;52.098;7.582;2023-05-27T16:48:21;37.90;25.30
23591;DHT22;11973;52.098;7.582;2023-05-27T16:50:46;36.90;25.50
23591;DHT22;11973;52.098;7.582;2023-05-27T16:53:12;36.30;25.70
23591;DHT22;11973;52.098;7.582;2023-05-27T16:55:38;35.70;25.90
23591;DHT22;11973;52.098;7.582;2023-05-27T16:58:03;35.30;26.00
23591;DHT22;11973;52.098;7.582;2023-05-27T17:00:29;34.70;26.10
23591;DHT22;11973;52.098;7.582;2023-05-27T17:02:55;34.10;26.20
23591;DHT22;11973;52.098;7.582;2023-05-27T17:05:21;33.50;26.90
23591;DHT22;11973;52.098;7.582;2023-05-27T17:07:47;33.00;26.60
23591;DHT22;11973;52.098;7.582;2023-05-27T17:10:12;32.40;26.80
23591;DHT22;11973;52.098;7.582;2023-05-27T17:12:39;31.90;26.90
23591;DHT22;11973;52.098;7.582;2023-05-27T17:15:05;31.40;27.10
23591;DHT22;11973;52.098;7.582;2023-05-27T17:17:31;30.90;27.30
23591;DHT22;11973;52.098;7.582;2023-05-27T17:19:57;30.40;27.40
23591;DHT22;11973;52.098;7.582;2023-05-27T17:22:23;29.90;27.60
23591;DHT22;11973;52.098;7.582;2023-05-27T17:24:49;29.40;27.90
23591;DHT22;11973;52.098;7.582;2023-05-27T17:27:14;29.00;28.10
23591;DHT22;11973;52.098;7.582;2023-05-27T17:29:41;28.70;28.40
23591;DHT22;11973;52.098;7.582;2023-05-27T17:32:10;28.40;28.60
23591;DHT22;11973;52.098;7.582;2023-05-27T17:34:36;28.10;28.80
23591;DHT22;11973;52.098;7.582;2023-05-27T17:37:02;27.90;29.10
23591;DHT22;11973;52.098;7.582;2023-05-27T17:39:28;27.80;29.30
23591;DHT22;11973;52.098;7.582;2023-05-27T17:41:53;27.70;29.40
23591;DHT22;11973;52.098;7.582;2023-05-27T17:44:19;27.70;29.60
23591;DHT22;11973;52.098;7.582;2023-05-27T17:46:45;28.10;29.80
23591;DHT22;11973;52.098;7.582;2023-05-27T17:49:11;28.30;29.80
23591;DHT22;11973;52.098;7.582;2023-05-27T17:51:36;28.30;29.90
23591;DHT22;11973;52.098;7.582;2023-05-27T17:54:03;28.10;30.00
23591;DHT22;11973;52.098;7.582;2023-05-27T17:56:28;27.90;30.10
23591;DHT22;11973;52.098;7.582;2023-05-27T17:58:54;27.60;30.30
23591;DHT22;11973;52.098;7.582;2023-05-27T18:01:20;27.30;30.30
23591;DHT22;11973;52.098;7.582;2023-05-27T18:03:46;27.00;30.40
23591;DHT22;11973;52.098;7.582;2023-05-27T18:06:12;26.80;30.70
23591;DHT22;11973;52.098;7.582;2023-05-27T18:08:38;26.50;30.80
23591;DHT22;11973;52.098;7.582;2023-05-27T18:11:05;26.30;31.10
23591;DHT22;11973;52.098;7.582;2023-05-27T18:13:31;26.10;31.30
23591;DHT22;11973;52.098;7.582;2023-05-27T18:15:57;25.90;31.60
23591;DHT22;11973;52.098;7.582;2023-05-27T18:18:22;25.70;32.00
23591;DHT22;11973;52.098;7.582;2023-05-27T18:20:48;25.40;32.10
23591;DHT22;11973;52.098;7.582;2023-05-27T18:23:14;25.30;32.50
23591;DHT22;11973;52.098;7.582;2023-05-27T18:25:40;25.10;32.90
23591;DHT22;11973;52.098;7.582;2023-05-27T18:28:06;24.90;33.20
23591;DHT22;11973;52.098;7.582;2023-05-27T18:30:32;24.80;33.60
23591;DHT22;11973;52.098;7.582;2023-05-27T18:32:59;24.60;34.00
23591;DHT22;11973;52.098;7.582;2023-05-27T18:35:26;24.50;34.30
23591;DHT22;11973;52.098;7.582;2023-05-27T18:37:52;24.30;34.70
23591;DHT22;11973;52.098;7.582;2023-05-27T18:40:18;24.20;35.00
23591;DHT22;11973;52.098;7.582;2023-05-27T18:42:48;24.10;35.50
23591;DHT22;11973;52.098;7.582;2023-05-27T18:45:13;23.90;35.80
23591;DHT22;11973;52.098;7.582;2023-05-27T18:47:39;23.80;36.10
23591;DHT22;11973;52.098;7.582;2023-05-27T18:50:05;23.70;36.40
23591;DHT22;11973;52.098;7.582;2023-05-27T18:52:31;23.50;36.70
23591;DHT22;11973;52.098;7.582;2023-05-27T18:54:57;23.40;37.00
23591;DHT22;11973;52.098;7.582;2023-05-27T18:57:26;23.30;37.30
23591;DHT22;11973;52.098;7.582;2023-05-27T18:59:52;23.10;37.70
23591;DHT22;11973;52.098;7.582;2023-05-27T19:02:21;23.00;38.00
23591;DHT22;11973;52.098;7.582;2023-05-27T19:04:47;22.90;38.30
23591;DHT22;11973;52.098;7.582;2023-05-27T19:07:17;22.80;38.60
23591;DHT22;11973;52.098;7.582;2023-05-27T19:09:43;22.60;38.70
23591;DHT22;11973;52.098;7.582;2023-05-27T19:12:11;22.50;38.90
23591;DHT22;11973;52.098;7.582;2023-05-27T19:14:37;22.40;39.20
23591;DHT22;11973;52.098;7.582;2023-05-27T19:17:03;22.30;39.40
23591;DHT22;11973;52.098;7.582;2023-05-27T19:19:29;22.20;39.70
23591;DHT22;11973;52.098;7.582;2023-05-27T19:21:55;22.10;39.90
23591;DHT22;11973;52.098;7.582;2023-05-27T19:24:22;22.00;40.10
23591;DHT22;11973;52.098;7.582;2023-05-27T19:26:48;21.80;40.30
23591;DHT22;11973;52.098;7.582;2023-05-27T19:29:14;21.70;41.10
23591;DHT22;11973;52.098;7.582;2023-05-27T19:31:40;21.70;40.80
23591;DHT22;11973;52.098;7.582;2023-05-27T19:34:05;21.50;40.90
23591;DHT22;11973;52.098;7.582;2023-05-27T19:36:32;21.40;41.10
23591;DHT22;11973;52.098;7.582;2023-05-27T19:38:58;21.30;41.30
23591;DHT22;11973;52.098;7.582;2023-05-27T19:41:24;21.20;41.50
23591;DHT22;11973;52.098;7.582;2023-05-27T19:43:50;21.10;41.70
23591;DHT22;11973;52.098;7.582;2023-05-27T19:46:15;21.00;41.90
23591;DHT22;11973;52.098;7.582;2023-05-27T19:48:41;20.90;42.10
23591;DHT22;11973;52.098;7.582;2023-05-27T19:51:07;20.80;42.30
23591;DHT22;11973;52.098;7.582;2023-05-27T19:53:34;20.70;42.50
23591;DHT22;11973;52.098;7.582;2023-05-27T19:56:00;20.60;42.60
23591;DHT22;11973;52.098;7.582;2023-05-27T19:58:29;20.40;42.80
23591;DHT22;11973;52.098;7.582;2023-05-27T20:00:58;20.30;43.00
23591;DHT22;11973;52.098;7.582;2023-05-27T20:03:24;20.20;43.30
23591;DHT22;11973;52.098;7.582;2023-05-27T20:05:50;20.10;43.60
23591;DHT22;11973;52.098;7.582;2023-05-27T20:08:17;20.00;43.80
23591;DHT22;11973;52.098;7.582;2023-05-27T20:10:42;19.90;44.10
23591;DHT22;11973;52.098;7.582;2023-05-27T20:13:08;19.80;44.40
23591;DHT22;11973;52.098;7.582;2023-05-27T20:15:34;19.70;44.60
23591;DHT22;11973;52.098;7.582;2023-05-27T20:18:00;19.60;45.60
23591;DHT22;11973;52.098;7.582;2023-05-27T20:20:26;19.60;45.80
23591;DHT22;11973;52.098;7.582;2023-05-27T20:22:58;19.50;45.50
23591;DHT22;11973;52.098;7.582;2023-05-27T20:25:24;19.40;45.70
23591;DHT22;11973;52.098;7.582;2023-05-27T20:27:50;19.30;46.10
23591;DHT22;11973;52.098;7.582;2023-05-27T20:30:15;19.20;46.30
23591;DHT22;11973;52.098;7.582;2023-05-27T20:32:41;19.10;46.50
23591;DHT22;11973;52.098;7.582;2023-05-27T20:35:08;19.00;46.70
23591;DHT22;11973;52.098;7.582;2023-05-27T20:37:34;18.90;46.90
23591;DHT22;11973;52.098;7.582;2023-05-27T20:40:03;18.90;47.20
23591;DHT22;11973;52.098;7.582;2023-05-27T20:42:31;18.80;47.50
23591;DHT22;11973;52.098;7.582;2023-05-27T20:44:57;18.70;47.70
23591;DHT22;11973;52.098;7.582;2023-05-27T20:47:23;18.60;47.80
23591;DHT22;11973;52.098;7.582;2023-05-27T20:49:48;18.50;48.00
23591;DHT22;11973;52.098;7.582;2023-05-27T20:52:14;18.50;48.30
23591;DHT22;11973;52.098;7.582;2023-05-27T20:54:40;18.40;48.50
23591;DHT22;11973;52.098;7.582;2023-05-27T20:57:06;18.30;48.60